sensor_id;sensor_type;location;lat;lon;timestamp;pressure;altitude;pressure_sealevel;temperature;humidity
12868;BME280;33517;49.866;8.320;2023-11-21T00:00:45;99777.50;;;9.61;100.00
12868;BME280;33517;49.866;8.320;2023-11-21T00:03:39;99778.78;;;9.65;100.00
12868;BME280;33517;49.866;8.320;2023-11-21T00:06:31;99771.91;;;9.64;100.00
12868;BME280;33517;49.866;8.320;2023-11-21T00:09:23;99773.72;;;9.63;100.00
12868;BME280;33517;49.866;8.320;2023-11-21T00:12:15;99770.56;;;9.68;100.00
12868;BME280;33517;49.866;8.320;2023-11-21T00:15:08;99765.88;;;9.55;100.00
12868;BME280;33517;49.866;8.320;2023-11-21T00:18:01;99765.47;;;9.44;100.00
12868;BME280;33517;49.866;8.320;2023-11-21T00:20:54;99765.00;;;9.40;100.00
12868;BME280;33517;49.866;8.320;2023-11-21T00:23:49;99769.22;;;9.49;100.00
12868;BME280;33517;49.866;8.320;2023-11-21T00:26:41;99772.78;;;9.56;100.00
12868;BME280;33517;49.866;8.320;2023-11-21T00:29:33;99771.97;;;9.56;100.00
12868;BME280;33517;49.866;8.320;2023-11-21T00:32:25;99768.38;;;9.57;100.00
12868;BME280;33517;49.866;8.320;2023-11-21T00:35:17;99770.34;;;9.55;100.00
12868;BME280;33517;49.866;8.320;2023-11-21T00:38:10;99772.00;;;9.48;100.00
12868;BME280;33517;49.866;8.320;2023-11-21T00:41:02;99771.06;;;9.41;100.00
12868;BME280;33517;49.866;8.320;2023-11-21T00:43:54;99768.09;;;9.44;100.00
12868;BME280;33517;49.866;8.320;2023-11-21T00:46:46;99766.44;;;9.51;100.00
12868;BME280;33517;49.866;8.320;2023-11-21T00:49:38;99768.50;;;9.55;100.00
12868;BME280;33517;49.866;8.320;2023-11-21T00:52:30;99766.66;;;9.64;100.00
12868;BME280;33517;49.866;8.320;2023-11-21T00:55:24;99770.13;;;9.64;100.00
12868;BME280;33517;49.866;8.320;2023-11-21T00:58:17;99769.94;;;9.66;100.00
12868;BME280;33517;49.866;8.320;2023-11-21T01:01:09;99768.41;;;9.71;100.00
12868;BME280;33517;49.866;8.320;2023-11-21T01:04:00;99770.63;;;9.82;100.00
12868;BME280;33517;49.866;8.320;2023-11-21T01:06:53;99782.88;;;9.90;100.00
12868;BME280;33517;49.866;8.320;2023-11-21T01:09:45;99785.00;;;9.94;100.00
12868;BME280;33517;49.866;8.320;2023-11-21T01:12:38;99787.69;;;9.86;100.00
12868;BME280;33517;49.866;8.320;2023-11-21T01:15:30;99795.28;;;9.81;100.00
12868;BME280;33517;49.866;8.320;2023-11-21T01:18:22;99792.28;;;9.84;100.00
12868;BME280;33517;49.866;8.320;2023-11-21T01:21:16;99794.09;;;9.84;100.00
12868;BME280;33517;49.866;8.320;2023-11-21T01:24:08;99794.22;;;9.90;100.00
12868;BME280;33517;49.866;8.320;2023-11-21T01:27:00;99798.66;;;9.90;100.00
12868;BME280;33517;49.866;8.320;2023-11-21T01:29:53;99796.78;;;9.98;100.00
12868;BME280;33517;49.866;8.320;2023-11-21T01:32:45;99795.09;;;10.05;100.00
12868;BME280;33517;49.866;8.320;2023-11-21T01:35:37;99797.50;;;10.15;100.00
12868;BME280;33517;49.866;8.320;2023-11-21T01:38:29;99795.63;;;10.24;100.00
12868;BME280;33517;49.866;8.320;2023-11-21T01:41:21;99793.22;;;10.37;100.00
12868;BME280;33517;49.866;8.320;2023-11-21T01:44:13;99802.19;;;10.42;100.00
12868;BME280;33517;49.866;8.320;2023-11-21T01:47:06;99793.78;;;10.47;100.00
12868;BME280;33517;49.866;8.320;2023-11-21T01:49:59;99798.56;;;10.43;100.00
12868;BME280;33517;49.866;8.320;2023-11-21T01:52:52;99798.28;;;10.53;100.00
12868;BME280;33517;49.866;8.320;2023-11-21T01:55:45;99795.31;;;10.56;100.00
12868;BME280;33517;49.866;8.320;2023-11-21T01:58:37;99794.69;;;10.54;100.00
12868;BME280;33517;49.866;8.320;2023-11-21T02:01:30;99799.75;;;10.55;100.00
12868;BME280;33517;49.866;8.320;2023-11-21T02:04:23;99802.91;;;10.51;100.00
12868;BME280;33517;49.866;8.320;2023-11-21T02:07:15;99810.72;;;10.59;100.00
12868;BME280;33517;49.866;8.320;2023-11-21T02:10:10;99816.94;;;10.66;100.00
12868;BME280;33517;49.866;8.320;2023-11-21T02:13:05;99817.84;;;10.73;100.00
12868;BME280;33517;49.866;8.320;2023-11-21T02:15:57;99821.56;;;10.78;100.00
12868;BME280;33517;49.866;8.320;2023-11-21T02:18:49;99821.81;;;10.83;100.00
12868;BME280;33517;49.866;8.320;2023-11-21T02:21:44;99815.19;;;10.87;100.00
12868;BME280;33517;49.866;8.320;2023-11-21T02:24:41;99814.56;;;10.56;100.00
12868;BME280;33517;49.866;8.320;2023-11-21T02:27:33;99814.31;;;10.29;100.00
12868;BME280;33517;49.866;8.320;2023-11-21T02:30:25;99810.34;;;10.33;100.00
12868;BME280;33517;49.866;8.320;2023-11-21T02:33:18;99816.63;;;10.46;100.00
12868;BME280;33517;49.866;8.320;2023-11-21T02:36:11;99821.50;;;10.49;100.00
12868;BME280;33517;49.866;8.320;2023-11-21T02:39:03;99818.44;;;10.60;100.00
12868;BME280;33517;49.866;8.320;2023-11-21T02:41:56;99827.91;;;10.69;100.00
12868;BME280;33517;49.866;8.320;2023-11-21T02:44:48;99821.94;;;10.75;100.00
12868;BME280;33517;49.866;8.320;2023-11-21T02:47:40;99824.38;;;10.77;100.00
12868;BME280;33517;49.866;8.320;2023-11-21T02:50:32;99825.53;;;10.74;100.00
12868;BME280;33517;49.866;8.320;2023-11-21T02:53:25;99827.72;;;10.71;100.00
12868;BME280;33517;49.866;8.320;2023-11-21T02:56:17;99825.72;;;10.73;100.00
12868;BME280;33517;49.866;8.320;2023-11-21T02:59:10;99834.06;;;10.76;100.00
12868;BME280;33517;49.866;8.320;2023-11-21T03:02:02;99822.19;;;10.80;100.00
12868;BME280;33517;49.866;8.320;2023-11-21T03:04:54;99825.91;;;10.86;100.00
12868;BME280;33517;49.866;8.320;2023-11-21T03:07:46;99825.72;;;10.87;100.00
12868;BME280;33517;49.866;8.320;2023-11-21T03:10:38;99824.56;;;10.90;100.00
12868;BME280;33517;49.866;8.320;2023-11-21T03:13:30;99826.81;;;10.93;100.00
12868;BME280;33517;49.866;8.320;2023-11-21T03:16:23;99821.19;;;10.81;100.00
12868;BME280;33517;49.866;8.320;2023-11-21T03:19:15;99812.72;;;10.42;100.00
12868;BME280;33517;49.866;8.320;2023-11-21T03:22:07;99813.34;;;10.30;100.00
12868;BME280;33517;49.866;8.320;2023-11-21T03:25:00;99821.22;;;10.30;100.00
12868;BME280;33517;49.866;8.320;2023-11-21T03:27:53;99823.47;;;10.33;100.00
12868;BME280;33517;49.866;8.320;2023-11-21T03:30:45;99813.16;;;10.31;100.00
12868;BME280;33517;49.866;8.320;2023-11-21T03:33:38;99822.84;;;10.31;100.00
12868;BME280;33517;49.866;8.320;2023-11-21T03:36:30;99832.72;;;10.29;100.00
12868;BME280;33517;49.866;8.320;2023-11-21T03:39:22;99842.41;;;10.28;100.00
12868;BME280;33517;49.866;8.320;2023-11-21T03:42:14;99841.13;;;10.24;100.00
12868;BME280;33517;49.866;8.320;2023-11-21T03:45:07;99852.38;;;10.18;100.00
12868;BME280;33517;49.866;8.320;2023-11-21T03:47:59;99857.00;;;10.16;100.00
12868;BME280;33517;49.866;8.320;2023-11-21T03:50:53;99858.63;;;10.09;100.00
12868;BME280;33517;49.866;8.320;2023-11-21T03:53:45;99859.69;;;10.00;100.00
12868;BME280;33517;49.866;8.320;2023-11-21T03:56:37;99859.97;;;10.05;100.00
12868;BME280;33517;49.866;8.320;2023-11-21T03:59:29;99859.19;;;10.04;100.00
12868;BME280;33517;49.866;8.320;2023-11-21T04:02:21;99870.34;;;10.06;100.00
12868;BME280;33517;49.866;8.320;2023-11-21T04:05:12;99864.25;;;10.14;100.00
12868;BME280;33517;49.866;8.320;2023-11-21T04:08:06;99872.69;;;10.24;100.00
12868;BME280;33517;49.866;8.320;2023-11-21T04:10:58;99870.19;;;10.31;100.00
12868;BME280;33517;49.866;8.320;2023-11-21T04:13:49;99875.63;;;10.29;100.00
12868;BME280;33517;49.866;8.320;2023-11-21T04:16:41;99880.06;;;10.29;100.00
12868;BME280;33517;49.866;8.320;2023-11-21T04:19:33;99882.50;;;10.30;100.00
12868;BME280;33517;49.866;8.320;2023-11-21T04:22:25;99885.69;;;10.26;100.00
12868;BME280;33517;49.866;8.320;2023-11-21T04:25:19;99893.81;;;10.16;100.00
12868;BME280;33517;49.866;8.320;2023-11-21T04:28:11;99892.25;;;9.99;100.00
12868;BME280;33517;49.866;8.320;2023-11-21T04:31:03;99892.94;;;9.93;100.00
12868;BME280;33517;49.866;8.320;2023-11-21T04:33:56;99899.34;;;9.90;100.00
12868;BME280;33517;49.866;8.320;2023-11-21T04:36:48;99894.91;;;9.91;100.00
12868;BME280;33517;49.866;8.320;2023-11-21T04:39:39;99905.41;;;9.91;100.00
12868;BME280;33517;49.866;8.320;2023-11-21T04:42:33;99905.25;;;9.92;100.00
12868;BME280;33517;49.866;8.320;2023-11-21T04:45:25;99906.88;;;9.93;100.00
12868;BME280;33517;49.866;8.320;2023-11-21T04:48:17;99904.72;;;9.97;100.00
12868;BME280;33517;49.866;8.320;2023-11-21T04:51:10;99915.09;;;9.90;100.00
12868;BME280;33517;49.866;8.320;2023-11-21T04:54:02;99919.34;;;9.91;100.00
12868;BME280;33517;49.866;8.320;2023-11-21T04:56:54;99918.38;;;9.92;100.00
12868;BME280;33517;49.866;8.320;2023-11-21T04:59:47;99920.50;;;9.97;100.00
12868;BME280;33517;49.866;8.320;2023-11-21T05:02:39;99927.66;;;10.03;100.00
12868;BME280;33517;49.866;8.320;2023-11-21T05:05:32;99923.88;;;10.05;100.00
12868;BME280;33517;49.866;8.320;2023-11-21T05:08:24;99936.91;;;9.99;100.00
12868;BME280;33517;49.866;8.320;2023-11-21T05:11:24;99936.56;;;10.02;100.00
12868;BME280;33517;49.866;8.320;2023-11-21T05:14:16;99944.28;;;10.03;100.00
12868;BME280;33517;49.866;8.320;2023-11-21T05:17:10;99945.94;;;10.04;100.00
12868;BME280;33517;49.866;8.320;2023-11-21T05:20:03;99957.72;;;10.08;100.00
12868;BME280;33517;49.866;8.320;2023-11-21T05:22:58;99957.88;;;10.07;100.00
12868;BME280;33517;49.866;8.320;2023-11-21T05:25:50;99966.41;;;10.09;100.00
12868;BME280;33517;49.866;8.320;2023-11-21T05:28:42;99953.28;;;10.09;100.00
12868;BME280;33517;49.866;8.320;2023-11-21T05:31:34;99966.78;;;10.06;100.00
12868;BME280;33517;49.866;8.320;2023-11-21T05:34:27;99968.75;;;10.12;100.00
12868;BME280;33517;49.866;8.320;2023-11-21T05:37:19;99972.03;;;10.14;100.00
12868;BME280;33517;49.866;8.320;2023-11-21T05:40:12;99968.69;;;10.20;100.00
12868;BME280;33517;49.866;8.320;2023-11-21T05:43:04;99980.66;;;10.23;100.00
12868;BME280;33517;49.866;8.320;2023-11-21T05:45:56;99975.94;;;10.18;100.00
12868;BME280;33517;49.866;8.320;2023-11-21T05:48:48;99981.34;;;10.16;100.00
12868;BME280;33517;49.866;8.320;2023-11-21T05:51:41;99986.28;;;10.19;100.00
12868;BME280;33517;49.866;8.320;2023-11-21T05:54:33;99988.75;;;10.21;100.00
12868;BME280;33517;49.866;8.320;2023-11-21T05:57:25;99994.97;;;10.20;100.00
12868;BME280;33517;49.866;8.320;2023-11-21T06:00:17;99996.44;;;10.23;100.00
12868;BME280;33517;49.866;8.320;2023-11-21T06:03:12;100001.53;;;10.24;100.00
12868;BME280;33517;49.866;8.320;2023-11-21T06:06:04;100007.59;;;10.25;100.00
12868;BME280;33517;49.866;8.320;2023-11-21T06:08:58;100006.97;;;10.23;100.00
12868;BME280;33517;49.866;8.320;2023-11-21T06:11:50;100010.06;;;10.26;100.00
12868;BME280;33517;49.866;8.320;2023-11-21T06:14:42;100016.66;;;10.22;100.00
12868;BME280;33517;49.866;8.320;2023-11-21T06:17:34;100024.41;;;10.24;100.00
12868;BME280;33517;49.866;8.320;2023-11-21T06:20:27;100024.03;;;10.27;100.00
12868;BME280;33517;49.866;8.320;2023-11-21T06:23:19;100028.31;;;10.28;100.00
12868;BME280;33517;49.866;8.320;2023-11-21T06:26:12;100029.94;;;10.29;100.00
12868;BME280;33517;49.866;8.320;2023-11-21T06:29:05;100037.00;;;10.28;100.00
12868;BME280;33517;49.866;8.320;2023-11-21T06:31:57;100041.13;;;10.31;100.00
12868;BME280;33517;49.866;8.320;2023-11-21T06:34:50;100047.66;;;10.35;100.00
12868;BME280;33517;49.866;8.320;2023-11-21T06:37:45;100049.28;;;10.36;100.00
12868;BME280;33517;49.866;8.320;2023-11-21T06:40:38;100051.28;;;10.34;100.00
12868;BME280;33517;49.866;8.320;2023-11-21T06:43:32;100051.63;;;10.31;100.00
12868;BME280;33517;49.866;8.320;2023-11-21T06:46:24;100053.25;;;10.32;100.00
12868;BME280;33517;49.866;8.320;2023-11-21T06:49:16;100062.81;;;10.33;100.00
12868;BME280;33517;49.866;8.320;2023-11-21T06:52:08;100066.91;;;10.35;100.00
12868;BME280;33517;49.866;8.320;2023-11-21T06:55:00;100066.09;;;10.35;100.00
12868;BME280;33517;49.866;8.320;2023-11-21T06:57:52;100072.81;;;10.37;100.00
12868;BME280;33517;49.866;8.320;2023-11-21T07:00:46;100072.16;;;10.35;100.00
12868;BME280;33517;49.866;8.320;2023-11-21T07:03:40;100091.09;;;10.31;100.00
12868;BME280;33517;49.866;8.320;2023-11-21T07:06:33;100093.06;;;10.29;100.00
12868;BME280;33517;49.866;8.320;2023-11-21T07:09:24;100100.28;;;10.27;100.00
12868;BME280;33517;49.866;8.320;2023-11-21T07:12:17;100105.22;;;10.30;100.00
12868;BME280;33517;49.866;8.320;2023-11-21T07:15:09;100109.50;;;10.31;100.00
12868;BME280;33517;49.866;8.320;2023-11-21T07:18:02;100115.75;;;10.30;100.00
12868;BME280;33517;49.866;8.320;2023-11-21T07:20:54;100121.78;;;10.38;100.00
12868;BME280;33517;49.866;8.320;2023-11-21T07:23:46;100127.00;;;10.46;100.00
12868;BME280;33517;49.866;8.320;2023-11-21T07:26:38;100123.22;;;10.49;100.00
12868;BME280;33517;49.866;8.320;2023-11-21T07:29:30;100128.31;;;10.50;100.00
12868;BME280;33517;49.866;8.320;2023-11-21T07:32:24;100131.59;;;10.52;100.00
12868;BME280;33517;49.866;8.320;2023-11-21T07:35:17;100130.59;;;10.53;100.00
12868;BME280;33517;49.866;8.320;2023-11-21T07:38:09;100134.88;;;10.54;100.00
12868;BME280;33517;49.866;8.320;2023-11-21T07:41:01;100141.28;;;10.52;100.00
12868;BME280;33517;49.866;8.320;2023-11-21T07:43:53;100132.72;;;10.58;100.00
12868;BME280;33517;49.866;8.320;2023-11-21T07:46:46;100146.63;;;10.66;100.00
12868;BME280;33517;49.866;8.320;2023-11-21T07:49:40;100146.81;;;10.65;100.00
12868;BME280;33517;49.866;8.320;2023-11-21T07:52:35;100155.19;;;10.68;100.00
12868;BME280;33517;49.866;8.320;2023-11-21T07:55:27;100151.88;;;10.74;100.00
12868;BME280;33517;49.866;8.320;2023-11-21T07:58:22;100162.53;;;10.81;100.00
12868;BME280;33517;49.866;8.320;2023-11-21T08:01:14;100172.03;;;10.90;100.00
12868;BME280;33517;49.866;8.320;2023-11-21T08:04:06;100173.16;;;10.95;100.00
12868;BME280;33517;49.866;8.320;2023-11-21T08:06:58;100172.16;;;10.96;100.00
12868;BME280;33517;49.866;8.320;2023-11-21T08:09:52;100175.09;;;11.01;99.95
12868;BME280;33517;49.866;8.320;2023-11-21T08:12:44;100180.53;;;11.00;100.00
12868;BME280;33517;49.866;8.320;2023-11-21T08:15:36;100175.69;;;11.11;100.00
12868;BME280;33517;49.866;8.320;2023-11-21T08:18:28;100179.25;;;11.19;99.40
12868;BME280;33517;49.866;8.320;2023-11-21T08:21:21;100180.84;;;11.28;99.33
12868;BME280;33517;49.866;8.320;2023-11-21T08:24:14;100181.31;;;11.31;99.73
12868;BME280;33517;49.866;8.320;2023-11-21T08:27:08;100189.56;;;11.28;98.11
12868;BME280;33517;49.866;8.320;2023-11-21T08:30:00;100181.44;;;11.38;98.27
12868;BME280;33517;49.866;8.320;2023-11-21T08:32:52;100185.19;;;11.43;98.77
12868;BME280;33517;49.866;8.320;2023-11-21T08:35:44;100189.75;;;11.49;97.30
12868;BME280;33517;49.866;8.320;2023-11-21T08:38:37;100193.53;;;11.47;98.22
12868;BME280;33517;49.866;8.320;2023-11-21T08:41:29;100204.25;;;11.45;97.86
12868;BME280;33517;49.866;8.320;2023-11-21T08:44:22;100200.97;;;11.43;97.87
12868;BME280;33517;49.866;8.320;2023-11-21T08:47:15;100205.09;;;11.46;97.91
12868;BME280;33517;49.866;8.320;2023-11-21T08:50:08;100206.56;;;11.48;98.11
12868;BME280;33517;49.866;8.320;2023-11-21T08:53:00;100212.44;;;11.50;97.24
12868;BME280;33517;49.866;8.320;2023-11-21T08:55:52;100216.97;;;11.42;96.59
12868;BME280;33517;49.866;8.320;2023-11-21T08:58:44;100224.22;;;11.40;96.73
12868;BME280;33517;49.866;8.320;2023-11-21T09:01:38;100235.75;;;11.39;97.30
12868;BME280;33517;49.866;8.320;2023-11-21T09:04:30;100239.84;;;11.41;97.31
12868;BME280;33517;49.866;8.320;2023-11-21T09:07:22;100243.97;;;11.44;96.43
12868;BME280;33517;49.866;8.320;2023-11-21T09:10:14;100245.91;;;11.50;96.61
12868;BME280;33517;49.866;8.320;2023-11-21T09:13:06;100243.22;;;11.58;96.48
12868;BME280;33517;49.866;8.320;2023-11-21T09:16:02;100251.41;;;11.63;95.82
12868;BME280;33517;49.866;8.320;2023-11-21T09:18:55;100254.81;;;11.71;95.55
12868;BME280;33517;49.866;8.320;2023-11-21T09:21:47;100241.59;;;11.79;95.19
12868;BME280;33517;49.866;8.320;2023-11-21T09:24:39;100245.34;;;11.85;95.07
12868;BME280;33517;49.866;8.320;2023-11-21T09:27:32;100251.06;;;11.88;95.31
12868;BME280;33517;49.866;8.320;2023-11-21T09:30:24;100253.56;;;11.90;93.92
12868;BME280;33517;49.866;8.320;2023-11-21T09:33:16;100255.56;;;12.02;93.80
12868;BME280;33517;49.866;8.320;2023-11-21T09:36:12;100263.16;;;12.20;93.88
12868;BME280;33517;49.866;8.320;2023-11-21T09:39:05;100265.09;;;12.26;93.41
12868;BME280;33517;49.866;8.320;2023-11-21T09:42:04;100270.47;;;12.33;92.75
12868;BME280;33517;49.866;8.320;2023-11-21T09:45:04;100276.19;;;12.22;92.79
12868;BME280;33517;49.866;8.320;2023-11-21T09:47:58;100283.91;;;12.23;92.70
12868;BME280;33517;49.866;8.320;2023-11-21T09:50:50;100280.84;;;12.34;93.76
12868;BME280;33517;49.866;8.320;2023-11-21T09:53:44;100283.59;;;12.41;93.20
12868;BME280;33517;49.866;8.320;2023-11-21T09:56:38;100289.03;;;12.39;92.10
12868;BME280;33517;49.866;8.320;2023-11-21T09:59:31;100294.19;;;12.55;92.17
12868;BME280;33517;49.866;8.320;2023-11-21T10:02:25;100295.00;;;12.85;91.81
12868;BME280;33517;49.866;8.320;2023-11-21T10:05:19;100295.66;;;13.16;91.31
12868;BME280;33517;49.866;8.320;2023-11-21T10:08:13;100294.72;;;13.24;89.51
12868;BME280;33517;49.866;8.320;2023-11-21T10:11:06;100305.34;;;13.30;89.75
12868;BME280;33517;49.866;8.320;2023-11-21T10:14:02;100312.22;;;13.25;89.58
12868;BME280;33517;49.866;8.320;2023-11-21T10:16:56;100306.56;;;13.28;90.35
12868;BME280;33517;49.866;8.320;2023-11-21T10:19:49;100312.56;;;13.36;89.84
12868;BME280;33517;49.866;8.320;2023-11-21T10:22:42;100318.50;;;13.24;89.08
12868;BME280;33517;49.866;8.320;2023-11-21T10:25:35;100321.50;;;13.21;89.30
12868;BME280;33517;49.866;8.320;2023-11-21T10:28:29;100316.56;;;13.32;89.16
12868;BME280;33517;49.866;8.320;2023-11-21T10:31:21;100326.44;;;13.24;87.95
12868;BME280;33517;49.866;8.320;2023-11-21T10:34:16;100322.88;;;13.31;88.77
12868;BME280;33517;49.866;8.320;2023-11-21T10:37:12;100322.97;;;13.59;88.16
12868;BME280;33517;49.866;8.320;2023-11-21T10:40:05;100322.66;;;13.83;87.35
12868;BME280;33517;49.866;8.320;2023-11-21T10:43:06;100320.69;;;13.92;86.15
12868;BME280;33517;49.866;8.320;2023-11-21T10:46:01;100320.63;;;14.06;86.12
12868;BME280;33517;49.866;8.320;2023-11-21T10:48:54;100325.75;;;14.29;85.54
12868;BME280;33517;49.866;8.320;2023-11-21T10:51:46;100322.22;;;14.43;84.62
12868;BME280;33517;49.866;8.320;2023-11-21T10:54:39;100320.78;;;14.47;84.29
12868;BME280;33517;49.866;8.320;2023-11-21T10:57:31;100319.78;;;14.48;82.93
12868;BME280;33517;49.866;8.320;2023-11-21T11:00:24;100319.19;;;14.80;83.17
12868;BME280;33517;49.866;8.320;2023-11-21T11:03:18;100323.06;;;15.12;83.22
12868;BME280;33517;49.866;8.320;2023-11-21T11:06:10;100315.72;;;15.48;82.19
12868;BME280;33517;49.866;8.320;2023-11-21T11:09:04;100310.94;;;16.69;80.70
12868;BME280;33517;49.866;8.320;2023-11-21T11:11:59;100322.16;;;16.91;77.85
12868;BME280;33517;49.866;8.320;2023-11-21T11:14:52;100316.41;;;17.00;75.86
12868;BME280;33517;49.866;8.320;2023-11-21T11:17:45;100319.91;;;16.75;74.96
12868;BME280;33517;49.866;8.320;2023-11-21T11:20:41;100321.38;;;16.71;76.24
12868;BME280;33517;49.866;8.320;2023-11-21T11:23:45;100317.31;;;16.55;76.27
12868;BME280;33517;49.866;8.320;2023-11-21T11:26:44;100316.88;;;16.45;75.57
12868;BME280;33517;49.866;8.320;2023-11-21T11:29:42;100318.28;;;16.28;75.42
12868;BME280;33517;49.866;8.320;2023-11-21T11:32:46;100313.41;;;16.38;76.01
12868;BME280;33517;49.866;8.320;2023-11-21T11:35:52;100305.03;;;16.47;75.23
12868;BME280;33517;49.866;8.320;2023-11-21T11:38:47;100305.63;;;16.69;74.80
12868;BME280;33517;49.866;8.320;2023-11-21T11:41:43;100311.34;;;16.86;73.73
12868;BME280;33517;49.866;8.320;2023-11-21T11:44:52;100316.63;;;16.92;72.59
12868;BME280;33517;49.866;8.320;2023-11-21T11:47:47;100313.16;;;16.85;72.74
12868;BME280;33517;49.866;8.320;2023-11-21T11:50:42;100306.41;;;16.89;71.51
12868;BME280;33517;49.866;8.320;2023-11-21T11:53:39;100314.00;;;16.59;71.68
12868;BME280;33517;49.866;8.320;2023-11-21T11:56:34;100317.47;;;16.80;71.11
12868;BME280;33517;49.866;8.320;2023-11-21T11:59:27;100315.06;;;17.29;71.21
12868;BME280;33517;49.866;8.320;2023-11-21T12:02:22;100318.78;;;17.21;70.40
12868;BME280;33517;49.866;8.320;2023-11-21T12:05:16;100318.84;;;17.08;69.29
12868;BME280;33517;49.866;8.320;2023-11-21T12:08:08;100312.16;;;16.80;69.01
12868;BME280;33517;49.866;8.320;2023-11-21T12:11:03;100322.81;;;16.53;68.96
12868;BME280;33517;49.866;8.320;2023-11-21T12:13:56;100321.16;;;16.39;69.50
12868;BME280;33517;49.866;8.320;2023-11-21T12:16:49;100326.47;;;16.26;69.88
12868;BME280;33517;49.866;8.320;2023-11-21T12:19:42;100329.31;;;16.25;69.90
12868;BME280;33517;49.866;8.320;2023-11-21T12:22:35;100328.50;;;16.37;69.73
12868;BME280;33517;49.866;8.320;2023-11-21T12:25:28;100334.22;;;16.28;70.30
12868;BME280;33517;49.866;8.320;2023-11-21T12:28:23;100341.38;;;16.27;70.07
12868;BME280;33517;49.866;8.320;2023-11-21T12:31:15;100336.88;;;16.15;69.43
12868;BME280;33517;49.866;8.320;2023-11-21T12:34:07;100348.06;;;15.91;69.55
12868;BME280;33517;49.866;8.320;2023-11-21T12:37:02;100356.38;;;15.68;70.51
12868;BME280;33517;49.866;8.320;2023-11-21T12:39:54;100352.22;;;15.46;70.44
12868;BME280;33517;49.866;8.320;2023-11-21T12:42:59;100355.56;;;15.27;71.75
12868;BME280;33517;49.866;8.320;2023-11-21T12:46:05;100349.84;;;15.30;71.95
12868;BME280;33517;49.866;8.320;2023-11-21T12:48:58;100354.31;;;15.23;71.89
12868;BME280;33517;49.866;8.320;2023-11-21T12:51:50;100360.41;;;15.17;71.69
12868;BME280;33517;49.866;8.320;2023-11-21T12:54:43;100362.38;;;15.08;72.30
12868;BME280;33517;49.866;8.320;2023-11-21T12:57:41;100361.44;;;14.88;72.76
12868;BME280;33517;49.866;8.320;2023-11-21T13:00:35;100363.03;;;14.83;72.69
12868;BME280;33517;49.866;8.320;2023-11-21T13:03:29;100357.19;;;14.66;72.36
12868;BME280;33517;49.866;8.320;2023-11-21T13:06:22;100365.66;;;14.55;72.95
12868;BME280;33517;49.866;8.320;2023-11-21T13:09:15;100366.41;;;14.42;73.82
12868;BME280;33517;49.866;8.320;2023-11-21T13:12:12;100366.63;;;14.26;73.75
12868;BME280;33517;49.866;8.320;2023-11-21T13:15:04;100370.59;;;14.16;74.21
12868;BME280;33517;49.866;8.320;2023-11-21T13:17:58;100373.47;;;14.00;74.33
12868;BME280;33517;49.866;8.320;2023-11-21T13:20:52;100376.50;;;13.97;75.03
12868;BME280;33517;49.866;8.320;2023-11-21T13:23:45;100382.91;;;13.87;75.02
12868;BME280;33517;49.866;8.320;2023-11-21T13:26:39;100384.66;;;13.80;74.66
12868;BME280;33517;49.866;8.320;2023-11-21T13:29:31;100393.09;;;13.69;75.87
12868;BME280;33517;49.866;8.320;2023-11-21T13:32:23;100393.56;;;13.44;75.84
12868;BME280;33517;49.866;8.320;2023-11-21T13:35:16;100399.69;;;13.30;76.94
12868;BME280;33517;49.866;8.320;2023-11-21T13:38:14;100395.22;;;13.16;76.66
12868;BME280;33517;49.866;8.320;2023-11-21T13:41:07;100399.03;;;13.13;76.88
12868;BME280;33517;49.866;8.320;2023-11-21T13:44:00;100406.56;;;13.02;76.34
12868;BME280;33517;49.866;8.320;2023-11-21T13:47:05;100411.84;;;12.87;76.17
12868;BME280;33517;49.866;8.320;2023-11-21T13:49:57;100411.06;;;12.78;77.48
12868;BME280;33517;49.866;8.320;2023-11-21T13:52:51;100417.25;;;12.71;77.47
12868;BME280;33517;49.866;8.320;2023-11-21T13:55:45;100428.72;;;12.63;76.09
12868;BME280;33517;49.866;8.320;2023-11-21T13:58:38;100425.41;;;12.61;76.27
12868;BME280;33517;49.866;8.320;2023-11-21T14:01:37;100432.78;;;12.51;77.37
12868;BME280;33517;49.866;8.320;2023-11-21T14:04:44;100440.81;;;12.35;76.74
12868;BME280;33517;49.866;8.320;2023-11-21T14:07:45;100438.59;;;12.24;77.10
12868;BME280;33517;49.866;8.320;2023-11-21T14:10:38;100440.75;;;12.21;77.64
12868;BME280;33517;49.866;8.320;2023-11-21T14:13:35;100438.59;;;12.24;77.08
12868;BME280;33517;49.866;8.320;2023-11-21T14:16:28;100433.34;;;12.39;77.04
12868;BME280;33517;49.866;8.320;2023-11-21T14:19:20;100434.78;;;12.49;76.64
12868;BME280;33517;49.866;8.320;2023-11-21T14:22:12;100434.34;;;12.60;76.69
12868;BME280;33517;49.866;8.320;2023-11-21T14:25:05;100432.13;;;12.72;76.60
12868;BME280;33517;49.866;8.320;2023-11-21T14:27:57;100433.03;;;12.79;76.71
12868;BME280;33517;49.866;8.320;2023-11-21T14:30:51;100431.34;;;12.86;77.15
12868;BME280;33517;49.866;8.320;2023-11-21T14:33:43;100438.44;;;12.85;77.64
12868;BME280;33517;49.866;8.320;2023-11-21T14:36:36;100434.97;;;12.85;76.76
12868;BME280;33517;49.866;8.320;2023-11-21T14:39:29;100442.94;;;12.77;76.64
12868;BME280;33517;49.866;8.320;2023-11-21T14:42:25;100443.75;;;12.63;76.38
12868;BME280;33517;49.866;8.320;2023-11-21T14:45:20;100448.53;;;12.59;77.40
12868;BME280;33517;49.866;8.320;2023-11-21T14:48:15;100451.72;;;12.55;77.85
12868;BME280;33517;49.866;8.320;2023-11-21T14:51:16;100458.22;;;12.44;78.21
12868;BME280;33517;49.866;8.320;2023-11-21T14:54:27;100454.66;;;12.37;77.93
12868;BME280;33517;49.866;8.320;2023-11-21T14:57:30;100452.59;;;12.25;79.00
12868;BME280;33517;49.866;8.320;2023-11-21T15:00:21;100455.38;;;12.23;78.58
12868;BME280;33517;49.866;8.320;2023-11-21T15:03:32;100460.38;;;12.18;78.87
12868;BME280;33517;49.866;8.320;2023-11-21T15:06:40;100464.34;;;12.14;79.19